sensor_id;sensor_type;location;lat;lon;timestamp;P1;durP1;ratioP1;P2;durP2;ratioP2
73382;SDS011;61600;48.126;11.542;2023-10-13T00:00:29;5.97;;;2.08;;
73382;SDS011;61600;48.126;11.542;2023-10-13T00:02:59;5.30;;;2.38;;
73382;SDS011;61600;48.126;11.542;2023-10-13T00:08:01;5.03;;;1.98;;
73382;SDS011;61600;48.126;11.542;2023-10-13T00:10:28;6.80;;;2.10;;
73382;SDS011;61600;48.126;11.542;2023-10-13T00:12:59;5.72;;;1.92;;
73382;SDS011;61600;48.126;11.542;2023-10-13T00:15:38;6.13;;;1.83;;
73382;SDS011;61600;48.126;11.542;2023-10-13T00:18:29;6.10;;;1.67;;
73382;SDS011;61600;48.126;11.542;2023-10-13T00:20:59;5.20;;;1.90;;
73382;SDS011;61600;48.126;11.542;2023-10-13T00:23:25;5.55;;;2.03;;
73382;SDS011;61600;48.126;11.542;2023-10-13T00:25:54;4.88;;;1.70;;
73382;SDS011;61600;48.126;11.542;2023-10-13T00:28:26;8.77;;;2.00;;
73382;SDS011;61600;48.126;11.542;2023-10-13T00:30:53;5.20;;;1.70;;
73382;SDS011;61600;48.126;11.542;2023-10-13T00:33:27;8.05;;;2.42;;
73382;SDS011;61600;48.126;11.542;2023-10-13T00:35:53;6.80;;;1.95;;
73382;SDS011;61600;48.126;11.542;2023-10-13T00:38:22;6.32;;;1.75;;
73382;SDS011;61600;48.126;11.542;2023-10-13T00:40:48;7.20;;;1.80;;
73382;SDS011;61600;48.126;11.542;2023-10-13T00:43:17;4.57;;;1.83;;
73382;SDS011;61600;48.126;11.542;2023-10-13T00:45:44;7.95;;;1.88;;
73382;SDS011;61600;48.126;11.542;2023-10-13T00:48:13;4.68;;;1.77;;
73382;SDS011;61600;48.126;11.542;2023-10-13T00:50:41;4.70;;;1.80;;
73382;SDS011;61600;48.126;11.542;2023-10-13T00:53:10;5.63;;;1.77;;
73382;SDS011;61600;48.126;11.542;2023-10-13T00:55:37;6.93;;;1.98;;
73382;SDS011;61600;48.126;11.542;2023-10-13T00:58:06;6.72;;;1.85;;
73382;SDS011;61600;48.126;11.542;2023-10-13T01:00:37;9.25;;;2.05;;
73382;SDS011;61600;48.126;11.542;2023-10-13T01:03:12;6.82;;;2.15;;
73382;SDS011;61600;48.126;11.542;2023-10-13T01:05:39;5.03;;;1.90;;
73382;SDS011;61600;48.126;11.542;2023-10-13T01:08:06;4.63;;;1.55;;
73382;SDS011;61600;48.126;11.542;2023-10-13T01:10:36;4.78;;;1.80;;
73382;SDS011;61600;48.126;11.542;2023-10-13T01:13:03;6.93;;;2.00;;
73382;SDS011;61600;48.126;11.542;2023-10-13T01:15:28;4.88;;;1.80;;
73382;SDS011;61600;48.126;11.542;2023-10-13T01:18:08;4.80;;;1.67;;
73382;SDS011;61600;48.126;11.542;2023-10-13T01:20:42;6.32;;;2.20;;
73382;SDS011;61600;48.126;11.542;2023-10-13T01:23:18;4.75;;;1.50;;
73382;SDS011;61600;48.126;11.542;2023-10-13T01:25:43;8.82;;;2.17;;
73382;SDS011;61600;48.126;11.542;2023-10-13T01:28:10;5.63;;;1.85;;
73382;SDS011;61600;48.126;11.542;2023-10-13T01:30:41;7.00;;;2.10;;
73382;SDS011;61600;48.126;11.542;2023-10-13T01:33:08;10.73;;;2.22;;
73382;SDS011;61600;48.126;11.542;2023-10-13T01:35:36;4.85;;;2.10;;
73382;SDS011;61600;48.126;11.542;2023-10-13T01:38:07;7.35;;;1.75;;
73382;SDS011;61600;48.126;11.542;2023-10-13T01:40:34;4.72;;;1.70;;
73382;SDS011;61600;48.126;11.542;2023-10-13T01:43:01;7.90;;;1.85;;
73382;SDS011;61600;48.126;11.542;2023-10-13T01:45:29;6.55;;;2.47;;
73382;SDS011;61600;48.126;11.542;2023-10-13T01:47:55;5.00;;;1.90;;
73382;SDS011;61600;48.126;11.542;2023-10-13T01:50:22;5.45;;;1.92;;
73382;SDS011;61600;48.126;11.542;2023-10-13T01:55:37;6.35;;;2.00;;
73382;SDS011;61600;48.126;11.542;2023-10-13T01:58:14;4.32;;;1.95;;
73382;SDS011;61600;48.126;11.542;2023-10-13T02:00:43;7.13;;;2.03;;
73382;SDS011;61600;48.126;11.542;2023-10-13T02:03:12;8.20;;;2.10;;
73382;SDS011;61600;48.126;11.542;2023-10-13T02:05:42;7.88;;;2.10;;
73382;SDS011;61600;48.126;11.542;2023-10-13T02:13:19;7.45;;;2.03;;
73382;SDS011;61600;48.126;11.542;2023-10-13T02:15:47;7.65;;;1.85;;
73382;SDS011;61600;48.126;11.542;2023-10-13T02:18:16;6.68;;;2.10;;
73382;SDS011;61600;48.126;11.542;2023-10-13T02:21:02;5.60;;;2.03;;
73382;SDS011;61600;48.126;11.542;2023-10-13T02:23:41;7.72;;;2.03;;
73382;SDS011;61600;48.126;11.542;2023-10-13T02:26:13;6.30;;;1.98;;
73382;SDS011;61600;48.126;11.542;2023-10-13T02:28:59;8.80;;;2.50;;
73382;SDS011;61600;48.126;11.542;2023-10-13T02:31:30;9.45;;;2.28;;
73382;SDS011;61600;48.126;11.542;2023-10-13T02:33:56;12.27;;;2.33;;
73382;SDS011;61600;48.126;11.542;2023-10-13T02:36:21;7.43;;;2.38;;
73382;SDS011;61600;48.126;11.542;2023-10-13T02:38:49;6.90;;;2.47;;
73382;SDS011;61600;48.126;11.542;2023-10-13T02:41:17;6.50;;;2.63;;
73382;SDS011;61600;48.126;11.542;2023-10-13T02:43:55;6.03;;;2.33;;
73382;SDS011;61600;48.126;11.542;2023-10-13T02:46:21;6.22;;;2.40;;
73382;SDS011;61600;48.126;11.542;2023-10-13T02:48:48;9.75;;;2.35;;
73382;SDS011;61600;48.126;11.542;2023-10-13T02:51:22;7.28;;;2.20;;
73382;SDS011;61600;48.126;11.542;2023-10-13T02:54:00;6.15;;;2.03;;
73382;SDS011;61600;48.126;11.542;2023-10-13T02:56:45;6.45;;;2.33;;
73382;SDS011;61600;48.126;11.542;2023-10-13T03:02:03;4.53;;;2.38;;
73382;SDS011;61600;48.126;11.542;2023-10-13T03:04:51;5.72;;;2.05;;
73382;SDS011;61600;48.126;11.542;2023-10-13T03:07:17;4.53;;;2.03;;
73382;SDS011;61600;48.126;11.542;2023-10-13T03:09:49;5.57;;;2.00;;
73382;SDS011;61600;48.126;11.542;2023-10-13T03:12:20;6.70;;;1.88;;
73382;SDS011;61600;48.126;11.542;2023-10-13T03:14:47;9.57;;;2.50;;
73382;SDS011;61600;48.126;11.542;2023-10-13T03:17:13;6.25;;;2.30;;
73382;SDS011;61600;48.126;11.542;2023-10-13T03:19:45;8.95;;;2.30;;
73382;SDS011;61600;48.126;11.542;2023-10-13T03:24:44;8.52;;;2.42;;
73382;SDS011;61600;48.126;11.542;2023-10-13T03:27:12;8.75;;;2.20;;
73382;SDS011;61600;48.126;11.542;2023-10-13T03:29:41;5.97;;;2.10;;
73382;SDS011;61600;48.126;11.542;2023-10-13T03:32:12;5.93;;;2.08;;
73382;SDS011;61600;48.126;11.542;2023-10-13T03:34:40;5.55;;;1.92;;
73382;SDS011;61600;48.126;11.542;2023-10-13T03:37:16;8.75;;;2.00;;
73382;SDS011;61600;48.126;11.542;2023-10-13T03:40:03;4.65;;;2.00;;
73382;SDS011;61600;48.126;11.542;2023-10-13T03:42:53;7.60;;;2.70;;
73382;SDS011;61600;48.126;11.542;2023-10-13T03:45:31;8.38;;;2.15;;
73382;SDS011;61600;48.126;11.542;2023-10-13T03:48:05;13.95;;;2.00;;
73382;SDS011;61600;48.126;11.542;2023-10-13T03:50:36;4.35;;;1.73;;
73382;SDS011;61600;48.126;11.542;2023-10-13T03:53:03;4.15;;;1.70;;
73382;SDS011;61600;48.126;11.542;2023-10-13T03:55:31;6.85;;;2.20;;
73382;SDS011;61600;48.126;11.542;2023-10-13T03:58:00;4.72;;;1.88;;
73382;SDS011;61600;48.126;11.542;2023-10-13T04:00:26;7.57;;;1.80;;
73382;SDS011;61600;48.126;11.542;2023-10-13T04:02:53;6.95;;;2.00;;
73382;SDS011;61600;48.126;11.542;2023-10-13T04:05:31;4.40;;;1.80;;
73382;SDS011;61600;48.126;11.542;2023-10-13T04:08:24;5.10;;;1.90;;
73382;SDS011;61600;48.126;11.542;2023-10-13T04:10:52;5.47;;;1.83;;
73382;SDS011;61600;48.126;11.542;2023-10-13T04:13:19;4.65;;;1.92;;
73382;SDS011;61600;48.126;11.542;2023-10-13T04:15:45;4.60;;;1.65;;
73382;SDS011;61600;48.126;11.542;2023-10-13T04:18:29;8.77;;;2.08;;
73382;SDS011;61600;48.126;11.542;2023-10-13T04:24:01;7.20;;;2.05;;
73382;SDS011;61600;48.126;11.542;2023-10-13T04:26:43;4.22;;;2.15;;
73382;SDS011;61600;48.126;11.542;2023-10-13T04:29:27;5.18;;;2.00;;
73382;SDS011;61600;48.126;11.542;2023-10-13T04:32:11;4.43;;;2.20;;
73382;SDS011;61600;48.126;11.542;2023-10-13T04:34:40;5.00;;;1.80;;
73382;SDS011;61600;48.126;11.542;2023-10-13T04:37:11;7.25;;;2.00;;
73382;SDS011;61600;48.126;11.542;2023-10-13T04:39:57;5.40;;;1.88;;
73382;SDS011;61600;48.126;11.542;2023-10-13T04:42:35;7.85;;;1.80;;
73382;SDS011;61600;48.126;11.542;2023-10-13T04:45:21;6.95;;;2.00;;
73382;SDS011;61600;48.126;11.542;2023-10-13T04:48:11;8.75;;;2.35;;
73382;SDS011;61600;48.126;11.542;2023-10-13T04:50:54;7.40;;;2.22;;
73382;SDS011;61600;48.126;11.542;2023-10-13T04:53:44;5.57;;;2.45;;
73382;SDS011;61600;48.126;11.542;2023-10-13T04:56:29;8.88;;;2.70;;
73382;SDS011;61600;48.126;11.542;2023-10-13T04:59:20;8.45;;;3.40;;
73382;SDS011;61600;48.126;11.542;2023-10-13T05:02:02;6.50;;;2.40;;
73382;SDS011;61600;48.126;11.542;2023-10-13T05:04:47;7.50;;;2.38;;
73382;SDS011;61600;48.126;11.542;2023-10-13T05:07:31;7.13;;;2.28;;
73382;SDS011;61600;48.126;11.542;2023-10-13T05:10:24;7.43;;;2.15;;
73382;SDS011;61600;48.126;11.542;2023-10-13T05:13:08;6.78;;;1.98;;
73382;SDS011;61600;48.126;11.542;2023-10-13T05:15:54;9.90;;;1.92;;
73382;SDS011;61600;48.126;11.542;2023-10-13T05:18:38;7.25;;;2.30;;
73382;SDS011;61600;48.126;11.542;2023-10-13T05:21:23;9.10;;;2.25;;
73382;SDS011;61600;48.126;11.542;2023-10-13T05:24:07;5.18;;;2.00;;
73382;SDS011;61600;48.126;11.542;2023-10-13T05:26:52;6.95;;;2.38;;
73382;SDS011;61600;48.126;11.542;2023-10-13T05:29:40;6.80;;;1.98;;
73382;SDS011;61600;48.126;11.542;2023-10-13T05:32:25;5.38;;;2.10;;
73382;SDS011;61600;48.126;11.542;2023-10-13T05:35:10;6.43;;;1.77;;
73382;SDS011;61600;48.126;11.542;2023-10-13T05:37:55;4.85;;;1.95;;
73382;SDS011;61600;48.126;11.542;2023-10-13T05:40:39;7.20;;;2.83;;
73382;SDS011;61600;48.126;11.542;2023-10-13T05:43:23;5.82;;;2.17;;
73382;SDS011;61600;48.126;11.542;2023-10-13T05:46:09;8.52;;;2.63;;
73382;SDS011;61600;48.126;11.542;2023-10-13T05:48:53;8.48;;;2.25;;
73382;SDS011;61600;48.126;11.542;2023-10-13T05:54:04;10.77;;;2.60;;
73382;SDS011;61600;48.126;11.542;2023-10-13T05:56:39;9.50;;;2.15;;
73382;SDS011;61600;48.126;11.542;2023-10-13T05:59:25;8.23;;;2.50;;
73382;SDS011;61600;48.126;11.542;2023-10-13T06:02:09;6.50;;;2.10;;
73382;SDS011;61600;48.126;11.542;2023-10-13T06:04:54;5.35;;;2.28;;
73382;SDS011;61600;48.126;11.542;2023-10-13T06:07:38;6.65;;;2.85;;
73382;SDS011;61600;48.126;11.542;2023-10-13T06:10:23;7.35;;;2.47;;
73382;SDS011;61600;48.126;11.542;2023-10-13T06:13:07;14.27;;;2.50;;
73382;SDS011;61600;48.126;11.542;2023-10-13T06:15:52;7.07;;;2.20;;
73382;SDS011;61600;48.126;11.542;2023-10-13T06:18:36;8.20;;;2.17;;
73382;SDS011;61600;48.126;11.542;2023-10-13T06:21:21;10.80;;;2.60;;
73382;SDS011;61600;48.126;11.542;2023-10-13T06:24:07;7.72;;;2.50;;
73382;SDS011;61600;48.126;11.542;2023-10-13T06:26:51;10.48;;;2.70;;
73382;SDS011;61600;48.126;11.542;2023-10-13T06:29:36;9.48;;;2.60;;
73382;SDS011;61600;48.126;11.542;2023-10-13T06:32:02;7.95;;;2.60;;
73382;SDS011;61600;48.126;11.542;2023-10-13T06:34:36;6.88;;;2.38;;
73382;SDS011;61600;48.126;11.542;2023-10-13T06:37:12;8.32;;;2.67;;
73382;SDS011;61600;48.126;11.542;2023-10-13T06:39:55;7.15;;;2.55;;
73382;SDS011;61600;48.126;11.542;2023-10-13T06:42:32;8.60;;;2.20;;
73382;SDS011;61600;48.126;11.542;2023-10-13T06:45:08;6.30;;;2.28;;
73382;SDS011;61600;48.126;11.542;2023-10-13T06:50:05;9.65;;;2.28;;
73382;SDS011;61600;48.126;11.542;2023-10-13T06:52:41;10.48;;;2.22;;
73382;SDS011;61600;48.126;11.542;2023-10-13T06:55:11;10.70;;;2.92;;
73382;SDS011;61600;48.126;11.542;2023-10-13T06:57:45;8.07;;;2.50;;
73382;SDS011;61600;48.126;11.542;2023-10-13T07:00:12;7.57;;;2.75;;
73382;SDS011;61600;48.126;11.542;2023-10-13T07:02:51;9.52;;;3.13;;
73382;SDS011;61600;48.126;11.542;2023-10-13T07:05:18;11.20;;;2.80;;
73382;SDS011;61600;48.126;11.542;2023-10-13T07:07:45;8.88;;;2.83;;
73382;SDS011;61600;48.126;11.542;2023-10-13T07:12:40;10.80;;;3.22;;
73382;SDS011;61600;48.126;11.542;2023-10-13T07:15:12;6.95;;;2.78;;
73382;SDS011;61600;48.126;11.542;2023-10-13T07:17:45;8.60;;;2.95;;
73382;SDS011;61600;48.126;11.542;2023-10-13T07:20:12;15.35;;;4.00;;
73382;SDS011;61600;48.126;11.542;2023-10-13T07:22:42;5.05;;;2.25;;
73382;SDS011;61600;48.126;11.542;2023-10-13T07:25:23;11.27;;;3.00;;
73382;SDS011;61600;48.126;11.542;2023-10-13T07:27:51;6.43;;;2.22;;
73382;SDS011;61600;48.126;11.542;2023-10-13T07:30:19;10.70;;;2.42;;
73382;SDS011;61600;48.126;11.542;2023-10-13T07:32:51;8.77;;;2.47;;
73382;SDS011;61600;48.126;11.542;2023-10-13T07:35:19;7.80;;;2.20;;
73382;SDS011;61600;48.126;11.542;2023-10-13T07:37:46;4.20;;;2.28;;
73382;SDS011;61600;48.126;11.542;2023-10-13T07:40:18;11.80;;;2.25;;
73382;SDS011;61600;48.126;11.542;2023-10-13T07:42:53;10.82;;;2.28;;
73382;SDS011;61600;48.126;11.542;2023-10-13T07:45:26;7.72;;;2.40;;
73382;SDS011;61600;48.126;11.542;2023-10-13T07:48:03;8.85;;;2.08;;
73382;SDS011;61600;48.126;11.542;2023-10-13T07:51:01;11.80;;;2.10;;
73382;SDS011;61600;48.126;11.542;2023-10-13T07:53:29;6.65;;;2.47;;
73382;SDS011;61600;48.126;11.542;2023-10-13T07:56:00;10.68;;;2.22;;
73382;SDS011;61600;48.126;11.542;2023-10-13T07:58:30;7.85;;;2.40;;
73382;SDS011;61600;48.126;11.542;2023-10-13T08:00:59;10.55;;;2.65;;
73382;SDS011;61600;48.126;11.542;2023-10-13T08:03:35;11.90;;;2.95;;
73382;SDS011;61600;48.126;11.542;2023-10-13T08:06:11;10.02;;;2.25;;
73382;SDS011;61600;48.126;11.542;2023-10-13T08:08:38;6.80;;;2.30;;
73382;SDS011;61600;48.126;11.542;2023-10-13T08:11:07;6.75;;;2.03;;
73382;SDS011;61600;48.126;11.542;2023-10-13T08:13:46;6.07;;;2.20;;
73382;SDS011;61600;48.126;11.542;2023-10-13T08:16:13;11.18;;;2.58;;
73382;SDS011;61600;48.126;11.542;2023-10-13T08:18:50;8.48;;;2.25;;
73382;SDS011;61600;48.126;11.542;2023-10-13T08:21:18;5.85;;;1.83;;
73382;SDS011;61600;48.126;11.542;2023-10-13T08:26:24;6.38;;;2.30;;
73382;SDS011;61600;48.126;11.542;2023-10-13T08:29:02;10.40;;;2.30;;
73382;SDS011;61600;48.126;11.542;2023-10-13T08:31:44;7.72;;;2.15;;
73382;SDS011;61600;48.126;11.542;2023-10-13T08:34:32;11.68;;;2.60;;
73382;SDS011;61600;48.126;11.542;2023-10-13T08:37:08;9.35;;;3.30;;
73382;SDS011;61600;48.126;11.542;2023-10-13T08:39:55;7.78;;;2.63;;
73382;SDS011;61600;48.126;11.542;2023-10-13T08:45:07;7.22;;;2.03;;
73382;SDS011;61600;48.126;11.542;2023-10-13T08:48:07;6.18;;;1.90;;
73382;SDS011;61600;48.126;11.542;2023-10-13T08:50:38;10.90;;;1.98;;
73382;SDS011;61600;48.126;11.542;2023-10-13T08:58:29;6.78;;;1.95;;
73382;SDS011;61600;48.126;11.542;2023-10-13T09:01:14;6.63;;;1.90;;
73382;SDS011;61600;48.126;11.542;2023-10-13T09:04:01;8.15;;;2.13;;
73382;SDS011;61600;48.126;11.542;2023-10-13T09:06:49;7.47;;;2.28;;
73382;SDS011;61600;48.126;11.542;2023-10-13T09:12:18;13.50;;;2.85;;
73382;SDS011;61600;48.126;11.542;2023-10-13T09:14:56;9.57;;;2.13;;
73382;SDS011;61600;48.126;11.542;2023-10-13T09:17:23;9.32;;;2.60;;
73382;SDS011;61600;48.126;11.542;2023-10-13T09:20:00;5.35;;;1.75;;
73382;SDS011;61600;48.126;11.542;2023-10-13T09:22:46;9.05;;;1.88;;
73382;SDS011;61600;48.126;11.542;2023-10-13T09:25:33;11.93;;;2.78;;
73382;SDS011;61600;48.126;11.542;2023-10-13T09:28:09;4.88;;;1.85;;
73382;SDS011;61600;48.126;11.542;2023-10-13T09:30:50;6.43;;;1.95;;
73382;SDS011;61600;48.126;11.542;2023-10-13T09:33:19;11.43;;;2.28;;
73382;SDS011;61600;48.126;11.542;2023-10-13T09:35:59;15.55;;;2.25;;
73382;SDS011;61600;48.126;11.542;2023-10-13T09:38:26;10.13;;;2.70;;
73382;SDS011;61600;48.126;11.542;2023-10-13T09:40:53;7.13;;;1.67;;
73382;SDS011;61600;48.126;11.542;2023-10-13T09:43:24;7.60;;;2.42;;
73382;SDS011;61600;48.126;11.542;2023-10-13T09:45:57;11.30;;;2.05;;
73382;SDS011;61600;48.126;11.542;2023-10-13T09:48:31;10.50;;;2.38;;
73382;SDS011;61600;48.126;11.542;2023-10-13T09:51:02;15.13;;;2.95;;
73382;SDS011;61600;48.126;11.542;2023-10-13T09:53:32;12.35;;;2.15;;
73382;SDS011;61600;48.126;11.542;2023-10-13T09:56:03;12.40;;;3.30;;
73382;SDS011;61600;48.126;11.542;2023-10-13T09:58:51;7.55;;;2.38;;
73382;SDS011;61600;48.126;11.542;2023-10-13T10:01:27;8.85;;;1.77;;
73382;SDS011;61600;48.126;11.542;2023-10-13T10:04:10;11.25;;;1.80;;
73382;SDS011;61600;48.126;11.542;2023-10-13T10:06:57;5.72;;;1.52;;
73382;SDS011;61600;48.126;11.542;2023-10-13T10:09:29;8.35;;;2.10;;
73382;SDS011;61600;48.126;11.542;2023-10-13T10:17:53;8.38;;;1.50;;
73382;SDS011;61600;48.126;11.542;2023-10-13T10:20:29;5.00;;;1.55;;
73382;SDS011;61600;48.126;11.542;2023-10-13T10:23:05;10.05;;;1.98;;
73382;SDS011;61600;48.126;11.542;2023-10-13T10:25:38;9.80;;;2.00;;
73382;SDS011;61600;48.126;11.542;2023-10-13T10:28:10;9.75;;;2.20;;
73382;SDS011;61600;48.126;11.542;2023-10-13T10:30:41;9.05;;;2.22;;
73382;SDS011;61600;48.126;11.542;2023-10-13T10:33:07;8.13;;;2.00;;
73382;SDS011;61600;48.126;11.542;2023-10-13T10:35:41;12.43;;;1.92;;
73382;SDS011;61600;48.126;11.542;2023-10-13T10:40:51;5.20;;;2.03;;
73382;SDS011;61600;48.126;11.542;2023-10-13T10:43:39;8.35;;;1.90;;
73382;SDS011;61600;48.126;11.542;2023-10-13T10:46:18;5.60;;;1.60;;
73382;SDS011;61600;48.126;11.542;2023-10-13T10:48:50;8.30;;;2.20;;
73382;SDS011;61600;48.126;11.542;2023-10-13T10:51:21;5.10;;;2.10;;
73382;SDS011;61600;48.126;11.542;2023-10-13T10:53:51;9.90;;;1.70;;
73382;SDS011;61600;48.126;11.542;2023-10-13T10:56:19;6.55;;;1.92;;
73382;SDS011;61600;48.126;11.542;2023-10-13T10:59:02;7.13;;;1.60;;
73382;SDS011;61600;48.126;11.542;2023-10-13T11:01:30;6.82;;;1.63;;
73382;SDS011;61600;48.126;11.542;2023-10-13T11:04:12;5.78;;;1.50;;
73382;SDS011;61600;48.126;11.542;2023-10-13T11:06:46;11.65;;;1.83;;
73382;SDS011;61600;48.126;11.542;2023-10-13T11:09:13;7.43;;;1.75;;
73382;SDS011;61600;48.126;11.542;2023-10-13T11:12:02;7.22;;;2.05;;
73382;SDS011;61600;48.126;11.542;2023-10-13T11:14:59;5.93;;;1.98;;
73382;SDS011;61600;48.126;11.542;2023-10-13T11:17:27;7.45;;;2.47;;
73382;SDS011;61600;48.126;11.542;2023-10-13T11:20:09;11.15;;;2.17;;
73382;SDS011;61600;48.126;11.542;2023-10-13T11:22:46;5.90;;;1.70;;
73382;SDS011;61600;48.126;11.542;2023-10-13T11:28:10;7.78;;;2.20;;
73382;SDS011;61600;48.126;11.542;2023-10-13T11:30:43;6.30;;;1.90;;
73382;SDS011;61600;48.126;11.542;2023-10-13T11:33:16;5.85;;;2.00;;
73382;SDS011;61600;48.126;11.542;2023-10-13T11:35:44;14.02;;;2.47;;
73382;SDS011;61600;48.126;11.542;2023-10-13T11:38:20;8.05;;;2.00;;
73382;SDS011;61600;48.126;11.542;2023-10-13T11:40:53;6.57;;;2.20;;
73382;SDS011;61600;48.126;11.542;2023-10-13T11:43:35;6.10;;;1.50;;
73382;SDS011;61600;48.126;11.542;2023-10-13T11:46:11;9.32;;;2.13;;
73382;SDS011;61600;48.126;11.542;2023-10-13T11:48:39;5.35;;;1.75;;
73382;SDS011;61600;48.126;11.542;2023-10-13T11:51:11;8.38;;;2.38;;
73382;SDS011;61600;48.126;11.542;2023-10-13T11:53:50;6.57;;;1.83;;
73382;SDS011;61600;48.126;11.542;2023-10-13T11:56:19;4.13;;;1.45;;
73382;SDS011;61600;48.126;11.542;2023-10-13T11:58:48;7.65;;;1.55;;
73382;SDS011;61600;48.126;11.542;2023-10-13T12:01:15;8.48;;;1.80;;
73382;SDS011;61600;48.126;11.542;2023-10-13T12:04:07;13.00;;;2.13;;
73382;SDS011;61600;48.126;11.542;2023-10-13T12:06:52;4.53;;;1.73;;
73382;SDS011;61600;48.126;11.542;2023-10-13T12:09:38;9.85;;;2.50;;
73382;SDS011;61600;48.126;11.542;2023-10-13T12:14:43;7.97;;;1.98;;
73382;SDS011;61600;48.126;11.542;2023-10-13T12:17:18;8.32;;;1.77;;
73382;SDS011;61600;48.126;11.542;2023-10-13T12:19:54;8.02;;;1.88;;
73382;SDS011;61600;48.126;11.542;2023-10-13T12:22:22;12.02;;;1.70;;
73382;SDS011;61600;48.126;11.542;2023-10-13T12:24:54;7.00;;;1.98;;
73382;SDS011;61600;48.126;11.542;2023-10-13T12:27:23;7.97;;;1.50;;
73382;SDS011;61600;48.126;11.542;2023-10-13T12:30:00;7.85;;;1.80;;
73382;SDS011;61600;48.126;11.542;2023-10-13T12:32:33;8.43;;;1.95;;
73382;SDS011;61600;48.126;11.542;2023-10-13T12:35:00;8.65;;;1.65;;
73382;SDS011;61600;48.126;11.542;2023-10-13T12:37:29;9.70;;;2.13;;
73382;SDS011;61600;48.126;11.542;2023-10-13T12:40:02;9.63;;;1.90;;
73382;SDS011;61600;48.126;11.542;2023-10-13T12:42:48;5.18;;;1.55;;
73382;SDS011;61600;48.126;11.542;2023-10-13T12:45:41;9.10;;;2.20;;
73382;SDS011;61600;48.126;11.542;2023-10-13T12:48:32;4.55;;;1.60;;
73382;SDS011;61600;48.126;11.542;2023-10-13T12:51:18;12.95;;;2.00;;
73382;SDS011;61600;48.126;11.542;2023-10-13T12:53:53;8.30;;;2.15;;
73382;SDS011;61600;48.126;11.542;2023-10-13T12:56:20;4.95;;;1.70;;
73382;SDS011;61600;48.126;11.542;2023-10-13T12:58:53;10.20;;;1.80;;
73382;SDS011;61600;48.126;11.542;2023-10-13T13:03:47;7.45;;;1.67;;
73382;SDS011;61600;48.126;11.542;2023-10-13T13:06:16;10.60;;;2.15;;
73382;SDS011;61600;48.126;11.542;2023-10-13T13:08:53;7.55;;;1.77;;
73382;SDS011;61600;48.126;11.542;2023-10-13T13:11:20;6.47;;;1.92;;
73382;SDS011;61600;48.126;11.542;2023-10-13T13:13:46;7.32;;;1.88;;
73382;SDS011;61600;48.126;11.542;2023-10-13T13:16:17;10.10;;;2.17;;
73382;SDS011;61600;48.126;11.542;2023-10-13T13:18:44;5.40;;;2.10;;
73382;SDS011;61600;48.126;11.542;2023-10-13T13:21:10;3.33;;;1.38;;
73382;SDS011;61600;48.126;11.542;2023-10-13T13:23:46;5.57;;;1.52;;
73382;SDS011;61600;48.126;11.542;2023-10-13T13:26:12;6.47;;;1.98;;
73382;SDS011;61600;48.126;11.542;2023-10-13T13:28:44;9.38;;;1.80;;
73382;SDS011;61600;48.126;11.542;2023-10-13T13:31:11;9.50;;;1.63;;
73382;SDS011;61600;48.126;11.542;2023-10-13T13:33:40;7.07;;;1.65;;
73382;SDS011;61600;48.126;11.542;2023-10-13T13:36:09;6.53;;;2.00;;
73382;SDS011;61600;48.126;11.542;2023-10-13T13:38:39;7.22;;;1.95;;
73382;SDS011;61600;48.126;11.542;2023-10-13T13:41:17;9.27;;;3.00;;
73382;SDS011;61600;48.126;11.542;2023-10-13T13:43:44;11.13;;;1.77;;
73382;SDS011;61600;48.126;11.542;2023-10-13T13:46:19;11.23;;;2.10;;
73382;SDS011;61600;48.126;11.542;2023-10-13T13:48:50;9.70;;;2.10;;
73382;SDS011;61600;48.126;11.542;2023-10-13T13:51:17;8.88;;;2.00;;
73382;SDS011;61600;48.126;11.542;2023-10-13T13:53:52;8.07;;;2.00;;
73382;SDS011;61600;48.126;11.542;2023-10-13T13:56:18;9.15;;;1.75;;
73382;SDS011;61600;48.126;11.542;2023-10-13T13:58:46;6.93;;;2.13;;
73382;SDS011;61600;48.126;11.542;2023-10-13T14:01:19;6.32;;;1.60;;
73382;SDS011;61600;48.126;11.542;2023-10-13T14:03:48;9.43;;;1.98;;
73382;SDS011;61600;48.126;11.542;2023-10-13T14:06:23;30.15;;;3.35;;
73382;SDS011;61600;48.126;11.542;2023-10-13T14:08:53;7.40;;;2.00;;
73382;SDS011;61600;48.126;11.542;2023-10-13T14:11:20;7.95;;;1.67;;
73382;SDS011;61600;48.126;11.542;2023-10-13T14:16:39;6.55;;;2.17;;
73382;SDS011;61600;48.126;11.542;2023-10-13T14:19:15;7.03;;;1.80;;
73382;SDS011;61600;48.126;11.542;2023-10-13T14:21:55;12.55;;;2.42;;
73382;SDS011;61600;48.126;11.542;2023-10-13T14:24:22;7.28;;;1.95;;
73382;SDS011;61600;48.126;11.542;2023-10-13T14:26:56;10.88;;;2.08;;
73382;SDS011;61600;48.126;11.542;2023-10-13T14:29:24;4.55;;;2.08;;
73382;SDS011;61600;48.126;11.542;2023-10-13T14:31:51;4.80;;;1.80;;
73382;SDS011;61600;48.126;11.542;2023-10-13T14:34:17;8.13;;;1.77;;
73382;SDS011;61600;48.126;11.542;2023-10-13T14:36:43;10.27;;;2.38;;
73382;SDS011;61600;48.126;11.542;2023-10-13T14:39:14;8.02;;;2.20;;
73382;SDS011;61600;48.126;11.542;2023-10-13T14:41:40;8.45;;;1.52;;
73382;SDS011;61600;48.126;11.542;2023-10-13T14:44:06;6.30;;;1.98;;
73382;SDS011;61600;48.126;11.542;2023-10-13T14:46:32;9.90;;;3.30;;
73382;SDS011;61600;48.126;11.542;2023-10-13T14:49:03;7.78;;;2.25;;
73382;SDS011;61600;48.126;11.542;2023-10-13T14:51:30;12.73;;;1.83;;
73382;SDS011;61600;48.126;11.542;2023-10-13T14:53:57;12.65;;;2.83;;
73382;SDS011;61600;48.126;11.542;2023-10-13T14:56:29;7.90;;;2.55;;
73382;SDS011;61600;48.126;11.542;2023-10-13T14:58:55;8.65;;;1.88;;
73382;SDS011;61600;48.126;11.542;2023-10-13T15:01:22;7.50;;;2.20;;
73382;SDS011;61600;48.126;11.542;2023-10-13T15:03:52;8.30;;;2.22;;
73382;SDS011;61600;48.126;11.542;2023-10-13T15:06:22;8.20;;;2.55;;
73382;SDS011;61600;48.126;11.542;2023-10-13T15:08:57;5.22;;;2.25;;
73382;SDS011;61600;48.126;11.542;2023-10-13T15:11:24;8.43;;;2.28;;
73382;SDS011;61600;48.126;11.542;2023-10-13T15:14:04;6.93;;;1.75;;
73382;SDS011;61600;48.126;11.542;2023-10-13T15:16:32;6.43;;;1.83;;
73382;SDS011;61600;48.126;11.542;2023-10-13T15:18:59;7.03;;;2.08;;
73382;SDS011;61600;48.126;11.542;2023-10-13T15:21:26;6.15;;;2.42;;
73382;SDS011;61600;48.126;11.542;2023-10-13T15:24:04;8.68;;;2.35;;
73382;SDS011;61600;48.126;11.542;2023-10-13T15:26:39;10.45;;;2.75;;
73382;SDS011;61600;48.126;11.542;2023-10-13T15:29:07;7.45;;;2.60;;
73382;SDS011;61600;48.126;11.542;2023-10-13T15:31:38;7.10;;;2.40;;
73382;SDS011;61600;48.126;11.542;2023-10-13T15:34:12;11.82;;;2.80;;
73382;SDS011;61600;48.126;11.542;2023-10-13T15:36:42;4.90;;;2.30;;
73382;SDS011;61600;48.126;11.542;2023-10-13T15:39:09;13.57;;;2.88;;
73382;SDS011;61600;48.126;11.542;2023-10-13T15:41:36;5.70;;;2.28;;
73382;SDS011;61600;48.126;11.542;2023-10-13T15:44:05;10.80;;;2.58;;
73382;SDS011;61600;48.126;11.542;2023-10-13T15:46:35;6.10;;;2.45;;
73382;SDS011;61600;48.126;11.542;2023-10-13T15:49:04;7.72;;;2.60;;
73382;SDS011;61600;48.126;11.542;2023-10-13T15:51:31;9.25;;;2.42;;
73382;SDS011;61600;48.126;11.542;2023-10-13T15:53:59;10.82;;;2.83;;
73382;SDS011;61600;48.126;11.542;2023-10-13T15:56:28;12.65;;;3.17;;
73382;SDS011;61600;48.126;11.542;2023-10-13T15:58:57;13.05;;;4.30;;
73382;SDS011;61600;48.126;11.542;2023-10-13T16:01:29;14.57;;;6.03;;
73382;SDS011;61600;48.126;11.542;2023-10-13T16:03:55;14.02;;;4.60;;
73382;SDS011;61600;48.126;11.542;2023-10-13T16:06:21;14.95;;;5.00;;
73382;SDS011;61600;48.126;11.542;2023-10-13T16:08:54;18.10;;;4.97;;